Time;durP1;ratioP1;P1;durP2;ratioP2;P2;SDS_P1;SDS_P2;PMS_P1;PMS_P2;Temp;Humidity;BMP_temperature;BMP_pressure;BME280_temperature;BME280_humidity;BME280_pressure;Samples;Min_cycle;Max_cycle;Signal;HPM_P1;HPM_P2
2023/05/16 00:00:08;;;;;;;11.80;10.20;;;9.30;62.20;;;;;;5160265;27;20037;-76
2023/05/16 00:02:38;;;;;;;12.77;9.63;;;9.20;62.40;;;;;;5176254;27;20074;-77
2023/05/16 00:05:05;;;;;;;10.43;8.48;;;9.20;62.50;;;;;;5161520;27;20015;-76
2023/05/16 00:07:31;;;;;;;12.55;8.90;;;9.20;62.40;;;;;;5160507;27;20023;-76
2023/05/16 00:09:57;;;;;;;12.27;9.13;;;9.20;62.60;;;;;;5157171;27;20014;-76
2023/05/16 00:12:22;;;;;;;10.95;8.75;;;9.20;62.70;;;;;;5155569;27;20110;-77
2023/05/16 00:14:50;;;;;;;12.55;9.68;;;9.20;62.90;;;;;;5136161;27;20025;-77
2023/05/16 00:17:16;;;;;;;12.00;9.50;;;9.20;62.70;;;;;;5156315;27;20079;-76
2023/05/16 00:19:43;;;;;;;10.35;8.65;;;9.20;62.80;;;;;;5136496;27;20047;-76
2023/05/16 00:22:10;;;;;;;11.00;8.25;;;9.20;63.20;;;;;;5164897;27;20015;-77
2023/05/16 00:24:36;;;;;;;11.23;9.05;;;9.10;63.40;;;;;;5158880;27;20018;-76
2023/05/16 00:27:02;;;;;;;10.73;8.77;;;9.10;63.50;;;;;;5145612;27;20037;-76
2023/05/16 00:29:31;;;;;;;13.57;10.02;;;9.10;63.30;;;;;;5136559;27;20026;-77
2023/05/16 00:31:57;;;;;;;12.20;9.07;;;9.10;63.40;;;;;;5162666;27;20026;-76
2023/05/16 00:34:22;;;;;;;12.25;9.38;;;9.00;63.50;;;;;;5173441;27;20082;-77
2023/05/16 00:36:51;;;;;;;10.52;7.97;;;9.00;63.50;;;;;;5155155;27;20058;-77
2023/05/16 00:39:17;;;;;;;9.38;7.57;;;9.00;63.50;;;;;;5139344;27;20033;-76
2023/05/16 00:41:43;;;;;;;11.45;9.20;;;9.00;63.40;;;;;;5135978;27;20023;-76
2023/05/16 00:44:08;;;;;;;12.82;10.00;;;9.00;63.30;;;;;;5155347;27;20077;-76
2023/05/16 00:46:34;;;;;;;14.60;10.75;;;9.00;63.30;;;;;;5154370;27;20018;-77
2023/05/16 00:49:00;;;;;;;15.15;9.50;;;8.90;63.40;;;;;;5161711;27;20034;-76
2023/05/16 00:51:26;;;;;;;12.18;8.63;;;8.90;63.60;;;;;;5160689;27;20027;-76
2023/05/16 00:53:53;;;;;;;12.63;9.00;;;8.90;63.70;;;;;;5161062;27;20400;-77
2023/05/16 00:56:20;;;;;;;10.23;8.18;;;8.80;63.50;;;;;;5157763;27;20065;-76
2023/05/16 00:58:46;;;;;;;14.35;9.68;;;8.80;63.60;;;;;;5158851;27;20029;-76
2023/05/16 01:01:13;;;;;;;12.60;9.25;;;8.80;63.40;;;;;;5139264;27;20431;-76
2023/05/16 01:03:38;;;;;;;13.25;10.05;;;8.80;63.30;;;;;;5139557;27;20041;-77
2023/05/16 01:06:05;;;;;;;13.48;9.57;;;8.80;63.10;;;;;;5141107;27;20026;-77
2023/05/16 01:08:30;;;;;;;14.75;10.10;;;8.80;63.00;;;;;;5141695;27;20053;-77
2023/05/16 01:11:05;;;;;;;13.85;10.18;;;8.90;63.00;;;;;;5159558;27;20022;-77
2023/05/16 01:13:46;;;;;;;13.30;9.73;;;8.90;63.20;;;;;;5131258;27;20038;-77
2023/05/16 01:16:32;;;;;;;16.13;11.52;;;8.90;63.00;;;;;;5159142;27;20023;-77
2023/05/16 01:19:17;;;;;;;13.27;9.60;;;8.90;62.90;;;;;;5163892;27;20087;-76
2023/05/16 01:22:05;;;;;;;13.05;9.80;;;9.00;62.70;;;;;;5148108;27;20075;-75
2023/05/16 01:24:47;;;;;;;14.68;9.75;;;9.10;62.50;;;;;;5167432;27;20040;-76
2023/05/16 01:27:15;;;;;;;19.73;14.07;;;9.10;62.70;;;;;;5140459;27;20121;-76
2023/05/16 01:29:41;;;;;;;14.63;11.63;;;9.10;63.30;;;;;;5163090;27;20350;-77
2023/05/16 01:32:06;;;;;;;13.50;10.77;;;9.10;63.50;;;;;;5139343;27;20114;-77
2023/05/16 01:34:32;;;;;;;13.02;11.15;;;9.10;63.20;;;;;;5165081;27;20028;-77
2023/05/16 01:37:01;;;;;;;17.63;14.13;;;9.10;62.80;;;;;;5155968;27;20106;-77
2023/05/16 01:39:54;;;;;;;16.15;12.50;;;9.20;62.70;;;;;;5150864;27;20049;-77
2023/05/16 01:42:26;;;;;;;21.08;15.63;;;9.20;62.40;;;;;;5168988;27;20078;-76
2023/05/16 01:45:15;;;;;;;18.83;14.77;;;9.30;62.60;;;;;;5152834;27;20074;-76
2023/05/16 01:47:46;;;;;;;23.30;15.40;;;9.30;62.90;;;;;;5144948;27;20018;-76
2023/05/16 01:50:19;;;;;;;26.38;18.00;;;9.30;62.60;;;;;;5166101;27;20053;-76
2023/05/16 01:53:10;;;;;;;30.58;21.50;;;9.40;62.90;;;;;;5154980;27;20296;-76
2023/05/16 01:55:46;;;;;;;30.08;21.70;;;9.40;63.00;;;;;;5141005;27;20058;-77
2023/05/16 01:58:19;;;;;;;33.35;25.17;;;9.40;63.40;;;;;;5156139;27;20319;-76
2023/05/16 02:00:44;;;;;;;35.75;25.33;;;9.50;63.80;;;;;;5160895;27;20062;-76
2023/05/16 02:03:10;;;;;;;38.00;28.38;;;9.50;64.80;;;;;;5163318;27;20422;-77
2023/05/16 02:05:36;;;;;;;42.30;31.27;;;9.50;65.10;;;;;;5163720;27;20037;-76
2023/05/16 02:08:02;;;;;;;43.70;31.88;;;9.50;65.20;;;;;;5163836;27;20042;-77
2023/05/16 02:10:31;;;;;;;42.03;30.50;;;9.60;66.40;;;;;;5158000;27;20054;-76
2023/05/16 02:12:56;;;;;;;43.00;31.88;;;9.60;66.60;;;;;;5156453;27;20066;-76
2023/05/16 02:15:22;;;;;;;49.00;34.92;;;9.60;67.80;;;;;;5158368;27;20339;-76
2023/05/16 02:17:48;;;;;;;45.10;33.40;;;9.70;68.40;;;;;;5156243;27;20106;-76
2023/05/16 02:20:13;;;;;;;63.17;42.95;;;9.70;69.20;;;;;;5158048;27;20034;-76
2023/05/16 02:22:39;;;;;;;55.95;39.67;;;9.80;71.30;;;;;;5139973;27;20019;-75
2023/05/16 02:25:08;;;;;;;60.05;39.95;;;9.80;72.50;;;;;;5143632;27;20060;-76
2023/05/16 02:27:35;;;;;;;53.58;37.17;;;9.80;73.90;;;;;;5137098;27;20054;-76
2023/05/16 02:30:01;;;;;;;48.30;36.38;;;9.80;73.30;;;;;;5139481;27;20034;-76
2023/05/16 02:32:26;;;;;;;51.28;36.05;;;9.80;73.20;;;;;;5156411;27;20094;-75
2023/05/16 02:34:52;;;;;;;57.30;40.72;;;9.80;73.20;;;;;;5157243;27;20179;-76
2023/05/16 02:37:17;;;;;;;53.70;38.08;;;9.90;73.50;;;;;;5157711;27;20023;-76
2023/05/16 02:39:43;;;;;;;57.25;38.88;;;9.80;75.20;;;;;;5141164;27;20046;-76
2023/05/16 02:42:09;;;;;;;50.13;35.45;;;9.80;76.00;;;;;;5139871;27;20023;-78
2023/05/16 02:44:35;;;;;;;51.53;37.63;;;9.80;75.60;;;;;;5157698;27;20033;-77
2023/05/16 02:47:00;;;;;;;55.10;37.88;;;9.90;76.40;;;;;;5157308;27;20039;-76
2023/05/16 02:49:26;;;;;;;51.70;36.97;;;9.90;76.60;;;;;;5149530;27;20030;-76
2023/05/16 02:51:51;;;;;;;52.15;36.55;;;9.90;77.60;;;;;;5139268;27;20764;-76
2023/05/16 02:54:18;;;;;;;46.75;33.67;;;9.90;78.30;;;;;;5166447;27;20035;-76
2023/05/16 02:56:43;;;;;;;52.90;37.72;;;10.00;78.10;;;;;;5146992;27;20280;-76
2023/05/16 02:59:10;;;;;;;52.97;36.15;;;9.90;79.20;;;;;;5174433;27;20034;-76
2023/05/16 03:01:36;;;;;;;52.67;37.97;;;9.90;79.00;;;;;;5163876;27;20026;-76
2023/05/16 03:04:01;;;;;;;54.88;38.15;;;10.00;78.20;;;;;;5157342;27;20037;-75
2023/05/16 03:06:27;;;;;;;48.45;34.03;;;10.00;77.90;;;;;;5146434;27;20059;-76
2023/05/16 03:08:53;;;;;;;64.22;41.95;;;10.00;77.70;;;;;;5152841;27;20034;-76
2023/05/16 03:11:23;;;;;;;50.38;36.10;;;9.90;78.30;;;;;;5162127;27;20410;-76
2023/05/16 03:13:49;;;;;;;54.88;37.25;;;9.90;77.10;;;;;;5139730;27;20039;-76
2023/05/16 03:16:15;;;;;;;44.92;33.70;;;9.90;78.10;;;;;;5156309;27;20355;-76
2023/05/16 03:18:41;;;;;;;51.22;32.72;;;9.80;77.00;;;;;;5156118;27;20048;-76
2023/05/16 03:21:07;;;;;;;44.33;32.22;;;9.80;77.90;;;;;;5155102;27;20057;-75
2023/05/16 03:23:33;;;;;;;41.05;29.13;;;9.70;77.10;;;;;;5154511;27;20062;-76
2023/05/16 03:25:58;;;;;;;41.97;31.48;;;9.70;75.60;;;;;;5157039;27;20026;-76
2023/05/16 03:28:26;;;;;;;51.20;33.38;;;9.70;76.40;;;;;;5156629;27;20083;-75
2023/05/16 03:30:51;;;;;;;46.28;32.78;;;9.70;75.50;;;;;;5157042;27;20030;-76
2023/05/16 03:33:17;;;;;;;46.00;31.38;;;9.80;75.50;;;;;;5152651;27;20050;-75
2023/05/16 03:35:43;;;;;;;49.33;33.72;;;9.70;75.90;;;;;;5157423;27;20063;-76
2023/05/16 03:38:09;;;;;;;59.50;38.10;;;9.60;75.90;;;;;;5156705;27;20110;-76
2023/05/16 03:40:35;;;;;;;62.33;38.92;;;9.60;75.30;;;;;;5155275;27;20025;-75
2023/05/16 03:43:01;;;;;;;56.83;37.25;;;9.70;74.80;;;;;;5162356;27;20098;-76
2023/05/16 03:45:26;;;;;;;52.90;36.22;;;9.70;75.00;;;;;;5156623;27;20034;-76
2023/05/16 03:47:52;;;;;;;64.45;39.78;;;9.70;75.20;;;;;;5146843;27;20022;-76
2023/05/16 03:50:17;;;;;;;64.45;40.85;;;9.70;76.30;;;;;;5164861;27;20026;-75
2023/05/16 03:52:43;;;;;;;66.00;41.75;;;9.70;76.60;;;;;;5161859;27;20030;-76
2023/05/16 03:55:09;;;;;;;63.28;40.97;;;9.70;76.60;;;;;;5158475;27;20106;-76
2023/05/16 03:57:36;;;;;;;88.97;49.30;;;9.70;76.60;;;;;;5160120;27;20078;-76
2023/05/16 04:00:06;;;;;;;86.60;49.90;;;9.70;77.20;;;;;;5163616;27;20027;-76
2023/05/16 04:02:32;;;;;;;87.43;45.70;;;9.60;77.90;;;;;;5166522;27;20058;-76
2023/05/16 04:04:57;;;;;;;79.70;47.40;;;9.60;76.20;;;;;;5157574;27;20022;-75
2023/05/16 04:07:23;;;;;;;83.35;48.67;;;9.60;76.50;;;;;;5155084;27;20110;-75
2023/05/16 04:09:52;;;;;;;82.50;48.47;;;9.60;76.80;;;;;;5152626;27;20022;-75
2023/05/16 04:12:17;;;;;;;75.50;48.63;;;9.60;77.30;;;;;;5152968;27;20454;-75
2023/05/16 04:14:43;;;;;;;85.32;50.38;;;9.60;76.80;;;;;;5155216;27;20027;-76
2023/05/16 04:17:09;;;;;;;86.75;49.70;;;9.60;76.50;;;;;;5153056;27;20084;-76
2023/05/16 04:19:36;;;;;;;96.60;54.83;;;9.60;76.40;;;;;;5135320;27;20026;-75
2023/05/16 04:22:02;;;;;;;97.25;52.72;;;9.60;77.20;;;;;;5158977;27;20319;-76
2023/05/16 04:24:27;;;;;;;90.57;54.70;;;9.60;77.80;;;;;;5161807;27;20061;-76
2023/05/16 04:26:54;;;;;;;102.60;56.78;;;9.60;77.20;;;;;;5160165;27;20050;-75
2023/05/16 04:29:20;;;;;;;111.63;60.88;;;9.50;77.20;;;;;;5174450;27;20108;-75
2023/05/16 04:31:46;;;;;;;105.43;57.72;;;9.40;76.60;;;;;;5139368;27;20678;-76
2023/05/16 04:34:12;;;;;;;121.28;61.03;;;9.50;75.60;;;;;;5158702;27;20026;-75
2023/05/16 04:36:41;;;;;;;99.75;57.25;;;9.50;76.00;;;;;;5145298;27;20079;-75
2023/05/16 04:39:08;;;;;;;114.53;59.72;;;9.50;75.50;;;;;;5141274;27;20019;-75
2023/05/16 04:41:34;;;;;;;110.97;60.63;;;9.50;75.50;;;;;;5154860;27;20023;-75
2023/05/16 04:44:05;;;;;;;100.95;56.83;;;9.50;74.80;;;;;;5147717;27;20019;-75
2023/05/16 04:46:31;;;;;;;87.10;53.10;;;9.50;74.30;;;;;;5160179;27;20027;-75
2023/05/16 04:49:00;;;;;;;100.32;56.10;;;9.50;74.10;;;;;;5162735;27;20033;-76
2023/05/16 04:51:29;;;;;;;93.15;52.60;;;9.60;73.80;;;;;;5157304;27;20315;-74
2023/05/16 04:53:59;;;;;;;98.68;55.38;;;9.60;73.50;;;;;;5160000;27;20022;-75
2023/05/16 04:56:29;;;;;;;107.72;55.22;;;9.70;74.80;;;;;;5160712;27;20025;-75
2023/05/16 04:58:55;;;;;;;123.30;62.10;;;9.70;75.30;;;;;;5158856;27;20021;-75
2023/05/16 05:01:24;;;;;;;99.95;56.70;;;9.60;75.60;;;;;;5159362;27;20030;-76
2023/05/16 05:03:52;;;;;;;148.00;67.32;;;9.50;74.50;;;;;;5158266;27;20018;-75
2023/05/16 05:06:19;;;;;;;142.18;67.97;;;9.50;74.50;;;;;;5141427;27;20022;-75
2023/05/16 05:08:50;;;;;;;140.43;68.78;;;9.40;73.40;;;;;;5156722;27;20476;-75
2023/05/16 05:11:17;;;;;;;125.18;63.28;;;9.40;72.60;;;;;;5157154;27;20022;-76
2023/05/16 05:13:43;;;;;;;125.40;63.42;;;9.40;71.00;;;;;;5153567;27;20035;-76
2023/05/16 05:16:09;;;;;;;110.05;60.80;;;9.40;70.50;;;;;;5158650;27;20018;-75
2023/05/16 05:18:35;;;;;;;129.75;64.10;;;9.40;70.50;;;;;;5130406;27;20019;-75
2023/05/16 05:21:01;;;;;;;165.00;73.18;;;9.50;70.90;;;;;;5141448;27;20030;-76
2023/05/16 05:23:29;;;;;;;142.77;68.35;;;9.50;71.40;;;;;;5160743;27;20402;-75
2023/05/16 05:25:55;;;;;;;152.38;68.57;;;9.40;70.90;;;;;;5149488;27;20033;-75
2023/05/16 05:28:20;;;;;;;148.85;68.88;;;9.40;69.70;;;;;;5154125;27;20022;-75
2023/05/16 05:30:47;;;;;;;165.13;73.95;;;9.40;69.50;;;;;;5138089;27;20033;-75
2023/05/16 05:33:15;;;;;;;134.18;66.80;;;9.50;69.10;;;;;;5138454;27;20467;-76
2023/05/16 05:35:44;;;;;;;118.88;63.20;;;9.60;69.90;;;;;;5156187;27;20319;-75
2023/05/16 05:38:09;;;;;;;135.18;66.25;;;9.60;70.40;;;;;;5136812;27;20022;-75
2023/05/16 05:40:35;;;;;;;147.70;68.97;;;9.60;71.00;;;;;;5156882;27;20083;-75
2023/05/16 05:43:05;;;;;;;146.00;69.45;;;9.60;71.60;;;;;;5138644;27;20044;-75
2023/05/16 05:45:39;;;;;;;119.50;62.63;;;9.60;72.10;;;;;;5160084;27;20099;-75
2023/05/16 05:48:09;;;;;;;132.65;64.80;;;9.60;70.70;;;;;;5143214;27;20157;-76
2023/05/16 05:50:35;;;;;;;104.18;57.60;;;9.70;71.50;;;;;;5152885;27;20087;-76
2023/05/16 05:53:01;;;;;;;123.78;62.42;;;9.70;71.20;;;;;;5157093;27;20034;-76
2023/05/16 05:55:27;;;;;;;119.65;62.70;;;9.80;73.30;;;;;;5138859;27;20319;-76
2023/05/16 05:57:52;;;;;;;112.97;61.60;;;9.70;73.90;;;;;;5137053;27;20015;-76
2023/05/16 06:00:18;;;;;;;109.30;60.10;;;9.80;73.90;;;;;;5149178;27;20026;-75
2023/05/16 06:02:44;;;;;;;124.68;62.38;;;9.80;74.10;;;;;;5127432;27;20482;-76
2023/05/16 06:05:09;;;;;;;123.53;64.35;;;9.80;75.60;;;;;;5162143;27;20117;-76
2023/05/16 06:07:35;;;;;;;120.80;62.55;;;9.70;74.80;;;;;;5155971;27;20042;-76
2023/05/16 06:10:03;;;;;;;120.15;62.20;;;9.70;74.90;;;;;;5135932;27;20061;-76
2023/05/16 06:12:29;;;;;;;122.30;62.80;;;9.80;74.50;;;;;;5157362;27;20102;-76
2023/05/16 06:14:55;;;;;;;120.63;62.30;;;9.80;75.70;;;;;;5158207;27;20117;-76
2023/05/16 06:17:20;;;;;;;112.20;58.60;;;9.90;76.10;;;;;;5158597;27;20073;-76
2023/05/16 06:19:46;;;;;;;116.80;61.78;;;9.90;75.90;;;;;;5155109;27;20022;-76
2023/05/16 06:22:11;;;;;;;130.20;65.20;;;9.90;78.50;;;;;;5140727;27;20082;-75
2023/05/16 06:24:37;;;;;;;119.75;61.40;;;9.80;78.50;;;;;;5148277;27;20046;-76
2023/05/16 06:27:03;;;;;;;101.18;56.15;;;9.70;77.30;;;;;;5160879;27;20029;-75
2023/05/16 06:29:28;;;;;;;108.57;60.55;;;9.80;75.90;;;;;;5169082;27;20029;-76
2023/05/16 06:31:57;;;;;;;112.70;59.13;;;9.90;77.60;;;;;;5159798;27;20115;-76
2023/05/16 06:34:26;;;;;;;112.20;60.15;;;9.80;78.20;;;;;;5156104;27;20034;-76
2023/05/16 06:36:52;;;;;;;116.07;61.05;;;9.80;76.50;;;;;;5156934;27;20023;-76
2023/05/16 06:39:18;;;;;;;101.35;57.67;;;9.80;77.60;;;;;;5155071;27;20031;-76
2023/05/16 06:41:44;;;;;;;110.88;58.40;;;9.80;78.50;;;;;;5158206;27;20302;-76
2023/05/16 06:44:10;;;;;;;122.10;64.68;;;9.80;78.50;;;;;;5145055;27;20026;-76
2023/05/16 06:46:37;;;;;;;97.72;56.10;;;9.80;79.30;;;;;;5138904;27;20079;-76
2023/05/16 06:49:02;;;;;;;107.70;59.60;;;9.90;77.70;;;;;;5158925;27;20030;-76
2023/05/16 06:51:28;;;;;;;105.38;58.35;;;9.90;78.80;;;;;;5133629;27;20042;-76
2023/05/16 06:53:54;;;;;;;85.95;51.05;;;10.00;78.60;;;;;;5153436;27;20031;-76
2023/05/16 06:56:20;;;;;;;100.05;56.80;;;10.00;79.20;;;;;;5155323;27;20061;-75
2023/05/16 06:58:46;;;;;;;112.05;60.72;;;10.00;80.20;;;;;;5156782;27;20014;-76
2023/05/16 07:01:11;;;;;;;106.15;59.83;;;9.90;80.50;;;;;;5157751;27;20451;-76
2023/05/16 07:03:37;;;;;;;93.82;55.45;;;9.90;79.90;;;;;;5138584;27;20030;-76
2023/05/16 07:06:03;;;;;;;89.32;53.97;;;10.00;79.00;;;;;;5158624;27;20061;-76
2023/05/16 07:08:28;;;;;;;83.35;50.67;;;10.00;80.30;;;;;;5159100;27;20390;-76
2023/05/16 07:10:54;;;;;;;97.35;57.78;;;10.10;79.50;;;;;;5158455;27;20419;-76
2023/05/16 07:13:20;;;;;;;92.75;54.47;;;10.10;81.10;;;;;;5157819;27;20042;-76
2023/05/16 07:15:45;;;;;;;108.53;58.33;;;10.10;81.00;;;;;;5137327;27;20027;-76
2023/05/16 07:18:11;;;;;;;91.80;52.67;;;10.10;80.80;;;;;;5156367;27;20019;-76
2023/05/16 07:20:38;;;;;;;82.72;49.05;;;10.00;80.10;;;;;;5158376;27;20015;-75
2023/05/16 07:23:03;;;;;;;89.40;54.15;;;10.10;78.80;;;;;;5157280;27;20121;-76
2023/05/16 07:25:30;;;;;;;90.65;53.47;;;10.30;81.50;;;;;;5157492;27;20072;-75
2023/05/16 07:27:56;;;;;;;84.90;50.50;;;10.30;83.70;;;;;;5157615;27;20030;-75
2023/05/16 07:30:22;;;;;;;90.95;53.58;;;10.30;83.40;;;;;;5158416;27;20422;-76
2023/05/16 07:32:48;;;;;;;85.35;52.67;;;10.30;84.10;;;;;;5155477;27;20042;-75
2023/05/16 07:35:14;;;;;;;105.45;56.88;;;10.20;83.10;;;;;;5158843;27;20319;-76
2023/05/16 07:37:41;;;;;;;98.88;57.22;;;10.10;83.40;;;;;;5157348;27;20014;-76
2023/05/16 07:40:07;;;;;;;81.00;51.55;;;10.10;81.60;;;;;;5157702;27;20022;-76
2023/05/16 07:42:37;;;;;;;81.60;49.30;;;10.10;80.40;;;;;;5156389;27;20029;-76
2023/05/16 07:45:06;;;;;;;80.68;50.03;;;10.10;80.10;;;;;;5157300;27;20327;-76
2023/05/16 07:47:32;;;;;;;76.07;47.78;;;10.10;81.60;;;;;;5156194;27;20071;-76
2023/05/16 07:49:57;;;;;;;83.47;49.17;;;10.00;81.70;;;;;;5157289;27;20027;-76
2023/05/16 07:52:23;;;;;;;80.40;49.13;;;9.90;82.90;;;;;;5139013;27;20450;-76
2023/05/16 07:54:48;;;;;;;78.70;49.58;;;9.90;82.30;;;;;;5157340;27;20115;-76
2023/05/16 07:57:14;;;;;;;85.18;51.58;;;9.90;82.80;;;;;;5154801;27;20075;-76
2023/05/16 07:59:40;;;;;;;77.13;48.72;;;9.90;82.50;;;;;;5139542;27;20023;-76
2023/05/16 08:02:06;;;;;;;77.20;47.78;;;9.90;80.60;;;;;;5157234;27;20027;-75
2023/05/16 08:04:32;;;;;;;82.35;49.83;;;9.80;81.50;;;;;;5154798;27;20079;-76
2023/05/16 08:07:04;;;;;;;79.32;47.30;;;9.80;80.60;;;;;;5166921;27;20066;-76
2023/05/16 08:09:30;;;;;;;65.53;44.65;;;9.80;79.70;;;;;;5145802;27;20498;-76
2023/05/16 08:11:56;;;;;;;84.28;50.15;;;9.80;78.60;;;;;;5156001;27;20019;-76
2023/05/16 08:14:22;;;;;;;74.63;48.45;;;9.70;79.10;;;;;;5156986;27;20037;-76
2023/05/16 08:16:49;;;;;;;79.82;47.42;;;9.70;78.10;;;;;;5156918;27;20409;-76
2023/05/16 08:19:14;;;;;;;70.25;45.55;;;9.70;77.60;;;;;;5137963;27;20110;-75
2023/05/16 08:21:40;;;;;;;78.32;47.42;;;9.80;77.30;;;;;;5151941;27;20307;-74
2023/05/16 08:24:06;;;;;;;83.00;50.80;;;9.80;78.70;;;;;;5157407;27;20125;-75
2023/05/16 08:26:33;;;;;;;65.88;44.28;;;9.80;79.00;;;;;;5154268;27;20054;-75
2023/05/16 08:29:01;;;;;;;73.15;47.10;;;9.90;79.20;;;;;;5156257;27;20604;-75
2023/05/16 08:31:29;;;;;;;78.53;48.22;;;9.80;80.30;;;;;;5148949;27;20030;-75
2023/05/16 08:33:54;;;;;;;68.00;45.40;;;9.80;81.00;;;;;;5149680;27;20019;-75
2023/05/16 08:36:20;;;;;;;74.35;45.45;;;9.70;80.10;;;;;;5156005;27;20038;-76
2023/05/16 08:38:48;;;;;;;61.90;42.10;;;9.70;80.80;;;;;;5136836;27;20014;-76
2023/05/16 08:41:16;;;;;;;69.55;45.55;;;9.80;80.10;;;;;;5155925;27;20041;-75
2023/05/16 08:43:41;;;;;;;69.20;44.80;;;9.80;81.50;;;;;;5155604;27;20323;-74
2023/05/16 08:46:07;;;;;;;72.25;44.45;;;9.70;81.30;;;;;;5156125;27;20107;-76
2023/05/16 08:48:33;;;;;;;66.40;42.38;;;9.60;80.40;;;;;;5152797;27;20018;-75
2023/05/16 08:51:07;;;;;;;63.63;42.35;;;9.60;81.10;;;;;;5141148;27;20384;-75
2023/05/16 08:53:43;;;;;;;62.60;43.05;;;9.60;80.30;;;;;;5153808;27;20030;-75
2023/05/16 08:56:12;;;;;;;63.03;41.53;;;9.70;80.80;;;;;;5154870;27;20439;-76
2023/05/16 08:58:39;;;;;;;63.40;40.33;;;9.70;79.90;;;;;;5154979;27;20068;-75
2023/05/16 09:01:07;;;;;;;50.60;37.40;;;9.70;81.80;;;;;;5157024;27;20023;-76
2023/05/16 09:03:36;;;;;;;58.85;38.58;;;9.70;80.00;;;;;;5151369;27;20023;-76
2023/05/16 09:06:04;;;;;;;58.95;38.72;;;9.70;81.70;;;;;;5154829;27;20038;-75
2023/05/16 09:08:30;;;;;;;52.45;38.03;;;9.70;83.20;;;;;;5159854;27;20063;-76
2023/05/16 09:10:56;;;;;;;47.58;33.65;;;9.80;82.70;;;;;;5157598;27;20027;-74
2023/05/16 09:13:21;;;;;;;50.53;33.25;;;9.90;82.80;;;;;;5156668;27;20058;-75
2023/05/16 09:16:14;;;;;;;39.33;28.95;;;9.90;87.20;;;;;;5155212;27;20106;-76
2023/05/16 09:18:42;;;;;;;40.60;28.75;;;9.90;87.90;;;;;;5148973;27;20019;-77
2023/05/16 09:21:10;;;;;;;39.53;28.67;;;9.90;87.60;;;;;;5138906;27;20027;-77
2023/05/16 09:23:35;;;;;;;39.30;29.45;;;9.80;88.10;;;;;;5175142;27;20026;-77
2023/05/16 09:26:02;;;;;;;46.10;31.42;;;9.90;87.50;;;;;;5157246;27;20053;-76
2023/05/16 09:28:29;;;;;;;40.10;29.95;;;9.80;87.70;;;;;;5158492;27;20022;-76
2023/05/16 09:30:58;;;;;;;44.45;31.02;;;9.90;87.50;;;;;;5156542;27;20046;-76
2023/05/16 09:33:25;;;;;;;38.75;28.90;;;9.80;87.30;;;;;;5158123;27;20046;-76
2023/05/16 09:36:01;;;;;;;35.05;26.27;;;9.80;85.20;;;;;;5159705;27;20300;-76
2023/05/16 09:38:27;;;;;;;42.42;29.77;;;9.80;84.90;;;;;;5159537;27;20022;-76
2023/05/16 09:40:54;;;;;;;36.05;25.90;;;9.80;85.80;;;;;;5160420;27;20476;-75
2023/05/16 09:43:25;;;;;;;35.15;28.08;;;9.70;86.50;;;;;;5158256;27;20122;-76
2023/05/16 09:45:51;;;;;;;37.88;28.45;;;9.60;84.20;;;;;;5158451;27;20023;-76
2023/05/16 09:48:17;;;;;;;35.13;26.40;;;9.70;83.40;;;;;;5157673;27;20046;-77
2023/05/16 09:50:51;;;;;;;44.20;28.77;;;9.80;82.40;;;;;;5154332;27;20117;-78
2023/05/16 09:53:23;;;;;;;29.50;22.33;;;9.80;83.20;;;;;;5158784;27;20315;-81
2023/05/16 09:56:14;;;;;;;32.25;25.77;;;9.80;84.00;;;;;;5156323;27;20019;-81
2023/05/16 09:58:43;;;;;;;33.83;25.25;;;9.70;84.70;;;;;;5153763;27;20046;-80
2023/05/16 10:01:11;;;;;;;35.05;24.73;;;9.50;85.40;;;;;;5155928;27;20022;-79
2023/05/16 10:03:44;;;;;;;41.92;29.45;;;9.40;84.60;;;;;;5154416;27;20026;-79
2023/05/16 10:06:12;;;;;;;36.28;27.98;;;9.30;82.50;;;;;;5152274;27;20030;-79
2023/05/16 10:08:41;;;;;;;30.73;24.77;;;9.30;80.90;;;;;;5157095;27;20030;-78
2023/05/16 10:11:06;;;;;;;35.22;25.45;;;9.40;78.70;;;;;;5156297;27;20106;-78
2023/05/16 10:13:34;;;;;;;37.17;28.08;;;9.40;79.40;;;;;;5155845;27;20493;-79
2023/05/16 10:16:07;;;;;;;46.28;33.03;;;9.30;79.90;;;;;;5153602;27;20019;-79
2023/05/16 10:18:34;;;;;;;40.05;30.58;;;9.30;78.50;;;;;;5151155;27;20022;-80
2023/05/16 10:21:05;;;;;;;47.78;32.22;;;9.30;77.80;;;;;;5156509;27;20028;-79
2023/05/16 10:23:32;;;;;;;43.95;30.42;;;9.30;77.90;;;;;;5155571;27;20109;-79
2023/05/16 10:25:59;;;;;;;52.28;36.08;;;9.30;76.90;;;;;;5153781;27;20487;-78
2023/05/16 10:28:27;;;;;;;42.83;32.72;;;9.40;75.60;;;;;;5155171;27;20031;-78
2023/05/16 10:30:54;;;;;;;45.95;32.67;;;9.30;77.50;;;;;;5154350;27;20428;-78
2023/05/16 10:33:20;;;;;;;51.20;35.70;;;9.30;77.30;;;;;;5155845;27;20113;-78
2023/05/16 10:35:46;;;;;;;61.63;41.08;;;9.30;77.40;;;;;;5155734;27;20586;-78
2023/05/16 10:38:15;;;;;;;53.08;37.25;;;9.20;77.70;;;;;;5154827;27;20038;-78
2023/05/16 10:40:41;;;;;;;62.58;40.20;;;9.20;73.50;;;;;;5155125;27;20026;-78
2023/05/16 10:43:08;;;;;;;47.17;33.83;;;9.20;75.00;;;;;;5157918;27;20023;-78
2023/05/16 10:45:38;;;;;;;50.88;36.78;;;9.30;76.20;;;;;;5155533;27;20502;-78
2023/05/16 10:48:05;;;;;;;68.70;47.38;;;9.20;76.90;;;;;;5154337;27;20040;-78
2023/05/16 10:50:38;;;;;;;49.88;36.70;;;9.20;75.20;;;;;;5155561;27;20083;-77
2023/05/16 10:53:31;;;;;;;54.77;38.90;;;9.30;73.10;;;;;;5155268;27;20095;-77
2023/05/16 10:56:00;;;;;;;54.20;40.08;;;9.30;72.60;;;;;;5155219;27;20019;-77
2023/05/16 10:58:37;;;;;;;49.22;35.70;;;9.40;73.60;;;;;;5157665;27;20029;-77
2023/05/16 11:01:26;;;;;;;48.00;34.05;;;9.40;73.50;;;;;;5154343;27;20034;-77
2023/05/16 11:04:00;;;;;;;53.35;35.72;;;9.40;74.90;;;;;;5141191;27;20061;-77
2023/05/16 11:06:41;;;;;;;50.83;34.60;;;9.40;78.80;;;;;;5155546;27;20357;-77
2023/05/16 11:09:18;;;;;;;52.70;35.10;;;9.30;78.80;;;;;;5156135;27;20026;-78
2023/05/16 11:12:03;;;;;;;51.20;35.42;;;9.40;77.00;;;;;;5157200;27;20015;-77
2023/05/16 11:14:32;;;;;;;48.33;34.30;;;9.50;77.00;;;;;;5154591;27;20043;-76
2023/05/16 11:17:09;;;;;;;51.70;35.05;;;9.60;77.70;;;;;;5156447;27;20027;-76
2023/05/16 11:19:59;;;;;;;51.22;36.80;;;9.80;77.60;;;;;;5150253;27;20050;-77
2023/05/16 11:22:28;;;;;;;46.50;32.97;;;9.80;80.30;;;;;;5155218;27;20471;-78
2023/05/16 11:25:06;;;;;;;44.22;33.42;;;9.80;81.20;;;;;;5153719;27;20030;-76
2023/05/16 11:27:46;;;;;;;49.05;33.33;;;9.70;83.50;;;;;;5156892;27;20019;-77
2023/05/16 11:30:18;;;;;;;52.53;34.55;;;9.60;82.90;;;;;;5154727;27;20054;-76
2023/05/16 11:32:45;;;;;;;48.42;33.50;;;9.60;81.30;;;;;;5153805;27;20087;-78
2023/05/16 11:35:13;;;;;;;49.97;32.13;;;9.60;82.00;;;;;;5155178;27;20384;-77
2023/05/16 11:37:39;;;;;;;52.03;34.05;;;9.60;82.10;;;;;;5152751;27;20075;-77
2023/05/16 11:40:07;;;;;;;48.40;34.08;;;9.50;82.80;;;;;;5153037;27;20018;-77
2023/05/16 11:42:51;;;;;;;49.00;33.67;;;9.50;83.10;;;;;;5150212;27;20374;-78
2023/05/16 11:45:19;;;;;;;51.70;36.00;;;9.40;82.00;;;;;;5155379;27;20050;-77
2023/05/16 11:47:48;;;;;;;57.63;39.22;;;9.40;81.20;;;;;;5155421;27;20029;-76
2023/05/16 11:50:20;;;;;;;50.92;34.03;;;9.40;80.60;;;;;;5154827;27;20365;-77
2023/05/16 11:52:55;;;;;;;42.42;30.35;;;9.40;82.10;;;;;;5154930;27;20038;-77
2023/05/16 11:55:23;;;;;;;64.70;41.85;;;9.40;80.90;;;;;;5153466;27;20030;-77
2023/05/16 11:57:50;;;;;;;59.85;38.95;;;9.40;80.30;;;;;;5155364;27;20370;-77
2023/05/16 12:00:18;;;;;;;67.15;39.70;;;9.30;79.10;;;;;;5154255;27;20402;-77
2023/05/16 12:02:47;;;;;;;78.78;43.95;;;9.40;77.10;;;;;;5151625;27;20033;-77
2023/05/16 12:05:14;;;;;;;52.28;34.40;;;9.40;76.40;;;;;;5155306;27;20371;-76
2023/05/16 12:07:43;;;;;;;70.95;43.03;;;9.40;75.00;;;;;;5155098;27;20019;-77
2023/05/16 12:10:10;;;;;;;58.50;38.85;;;9.40;74.80;;;;;;5155466;27;20030;-77
2023/05/16 12:12:39;;;;;;;71.85;41.78;;;9.30;74.80;;;;;;5154407;27;20043;-77
2023/05/16 12:15:06;;;;;;;63.85;40.10;;;9.30;73.40;;;;;;5154410;27;20082;-77
2023/05/16 12:17:33;;;;;;;82.30;46.72;;;9.30;72.50;;;;;;5151359;27;20019;-77
2023/05/16 12:19:59;;;;;;;55.33;37.60;;;9.30;72.10;;;;;;5152575;27;20011;-78
2023/05/16 12:22:25;;;;;;;70.32;42.00;;;9.30;71.30;;;;;;5155003;27;20054;-78
2023/05/16 12:24:54;;;;;;;83.32;49.17;;;9.20;72.50;;;;;;5152955;27;20482;-78
2023/05/16 12:27:24;;;;;;;102.25;50.33;;;9.20;71.20;;;;;;5139390;27;20027;-78
2023/05/16 12:29:49;;;;;;;87.10;44.72;;;9.20;69.70;;;;;;5136742;27;20037;-80
2023/05/16 12:32:19;;;;;;;88.80;46.17;;;9.30;68.70;;;;;;5152050;27;20034;-79
2023/05/16 12:34:50;;;;;;;86.60;43.33;;;9.30;66.90;;;;;;5154044;27;20026;-80
2023/05/16 12:37:16;;;;;;;85.25;40.20;;;9.30;66.60;;;;;;5153110;27;20413;-79
2023/05/16 12:39:41;;;;;;;86.88;40.38;;;9.30;65.20;;;;;;5154343;27;20019;-79